METAR Reports

Area Airport Weather Conditions

KBDL - Windsor Locks, Connecticut, USA
Distance from station: NE 45mi, 72km
Updated: 10:51PM EDT, October 19, 2020
Mostly cloudy
Mostly cloudy
 Wind from S
Wind: S 3 mph , 6 km/h
Temperature: 54°F , 12°C
Dew Point: 50°F , 10°C
Humidity: 88%
Barometer: 30.30 inHg , 1026.1 hPa
Clouds: Mostly cloudy
Visibility: 10 miles , 16 km
Cloud details: Mostly cloudy 25000 ft
2020/10/20 02:51 KBDL 200251Z 19003KT 10SM BKN250 12/10 A3030 RMK AO2 SLP261 T01220100 56005
KDXR - Danbury, Connecticut, USA
Distance from station: SSW 15mi, 24km
Updated: 10:53PM EDT, October 19, 2020
Clear
Clear
 Wind from calm
Wind: Calm
Temperature: 54°F , 12°C
Dew Point: 52°F , 11°C
Humidity: 94%
Barometer: 30.31 inHg , 1026.4 hPa
Clouds: Clear
Visibility: 10 miles , 16 km
2020/10/20 02:53 KDXR 200253Z AUTO 00000KT 10SM CLR 12/11 A3031 RMK AO2 SLP264 T01220111 55006
 
KOXC - Oxford/Waterbury, Connecticut, USA
Distance from station: ESE 16mi, 26km
Updated: 10:51PM EDT, October 19, 2020
Clear
Clear
 Wind from SE
Wind: SE 3 mph , 6 km/h
Temperature: 54°F , 12°C
Dew Point: 52°F , 11°C
Humidity: 94%
Barometer: 30.31 inHg , 1026.4 hPa
Clouds: Clear
Visibility: 10 miles , 16 km
2020/10/20 02:51 KOXC 200251Z AUTO 14003KT 10SM CLR 12/11 A3031 RMK AO2 SLP276 T01170111 55008
KPOU - Poughkeepsie, New York, USA
Distance from station: W 25mi, 40km
Updated: 10:53PM EDT, October 19, 2020
Overcast
Overcast
 Wind from SE
Wind: SE 5 mph , 7 km/h
Temperature: 59°F , 15°C
Dew Point: 54°F , 12°C
Humidity: 82%
Barometer: 30.27 inHg , 1025.1 hPa
Clouds: Overcast
Visibility: 10 miles , 16 km
Cloud details: Few Clouds 1700 ft
Mostly cloudy 4600 ft
Overcast 11000 ft
2020/10/20 02:53 KPOU 200253Z 14004KT 10SM FEW017 BKN046 OVC110 15/12 A3027 RMK AO2 SLP248 T01500117 56003
 
KMMK - Meriden, Connecticut, USA
Distance from station: E 30mi, 48km
Updated: 10:53PM EDT, October 19, 2020
Clear
Clear
 Wind from NW
Wind: NW 3 mph , 6 km/h
Temperature: 52°F , 11°C
Dew Point: 50°F , 10°C
Humidity: 94%
Barometer: 30.30 inHg , 1026.1 hPa
Clouds: Clear
Visibility: 10 miles , 16 km
2020/10/20 02:53 KMMK 200253Z AUTO 31003KT 10SM CLR 11/10 A3030 RMK AO2 SLP261 T01110100 58008
KBDR - Bridgeport, Connecticut, USA
Distance from station: SSE 32mi, 51km
Updated: 10:52PM EDT, October 19, 2020
Clear
Clear
 Wind from SSE
Wind: SSE 7 mph , 11 km/h
Temperature: 61°F , 16°C
Dew Point: 54°F , 12°C
Humidity: 77%
Barometer: 30.30 inHg , 1026.1 hPa
Clouds: Clear
Visibility: 10 miles , 16 km
2020/10/20 02:52 KBDR 200252Z AUTO 15006KT 10SM CLR 16/12 A3030 RMK AO2 SLP260 T01560117 56009
 
KHVN - New Haven/Tweed, Connecticut, USA
Distance from station: SE 35mi, 57km
Updated: 10:53PM EDT, October 19, 2020
Clear
Clear
 Wind from SSE
Wind: SSE 7 mph , 11 km/h
Temperature: 61°F , 16°C
Dew Point: 54°F , 12°C
Humidity: 77%
Barometer: 30.30 inHg , 1026.1 hPa
Clouds: Clear
Visibility: 10 miles , 16 km
2020/10/20 02:53 KHVN 200253Z AUTO 15006KT 10SM CLR 16/12 A3030 RMK AO2 SLP258 T01560117 58012
KSWF - Newburgh/Stewart, New York, USA
Distance from station: W 35mi, 57km
Updated: 10:45PM EDT, October 19, 2020
Overcast
Overcast
 Wind from calm
Wind: Calm
Temperature: 57°F , 14°C
Dew Point: 54°F , 12°C
Humidity: 88%
Barometer: 30.29 inHg , 1025.7 hPa
Clouds: Overcast
Visibility: 10 miles , 16 km
Cloud details: Partly cloudy 1600 ft
Overcast 4000 ft
2020/10/20 02:45 KSWF 200245Z 00000KT 10SM SCT016 OVC040 14/12 A3029
 
KHPN - White Plains, New York, USA
Distance from station: SSW 38mi, 62km
Updated: 9:56PM EDT, October 19, 2020
Few Clouds
Few Clouds
 Wind from SE
Wind: SE 6 mph , 9 km/h
Temperature: 55°F , 13°C
Dew Point: 54°F , 12°C
Humidity: 94%
Barometer: 30.29 inHg , 1025.7 hPa
Clouds: Few Clouds
Visibility: 10 miles , 16 km
Cloud details: Few Clouds 1500 ft
2020/10/20 01:56 KHPN 200156Z 13005KT 10SM FEW015 13/12 A3029 RMK AO2 SLP257 T01330117
KHFD - Hartford/Brainar, Connecticut, USA
Distance from station: ENE 41mi, 65km
Updated: 10:53PM EDT, October 19, 2020
Clear
Clear
 Wind from S
Wind: S 3 mph , 6 km/h
Temperature: 55°F , 13°C
Dew Point: 50°F , 10°C
Humidity: 82%
Barometer: 30.30 inHg , 1026.1 hPa
Clouds: Clear
Visibility: 10 miles , 16 km
2020/10/20 02:53 KHFD 200253Z 19003KT 10SM CLR 13/10 A3030 RMK AO2 SLP261 T01330100 58008